createdAt,value
2023-04-09T00:04:26.522Z,101411.03
2023-04-09T00:09:22.821Z,101422.03
2023-04-09T00:14:19.258Z,101417.13
2023-04-09T00:19:15.715Z,101412.72
2023-04-09T00:24:12.164Z,101412.88
2023-04-09T00:29:08.452Z,101402.28
2023-04-09T00:34:05.332Z,101412.06
2023-04-09T00:39:01.582Z,101405.16
2023-04-09T00:43:57.815Z,101399.25
2023-04-09T00:48:54.286Z,101399.25
2023-04-09T00:53:50.749Z,101403.88
2023-04-09T00:58:46.988Z,101399.41
2023-04-09T01:03:43.371Z,101405.97
2023-04-09T01:08:54.606Z,101409.59
2023-04-09T01:13:59.330Z,101403.19
2023-04-09T01:18:58.231Z,101410.59
2023-04-09T01:24:19.159Z,101407.28
2023-04-09T01:29:16.548Z,101413.44
2023-04-09T01:34:14.017Z,101408.41
2023-04-09T01:39:10.480Z,101412.03
2023-04-09T01:44:07.742Z,101416.59
2023-04-09T01:49:04.273Z,101420.16
2023-04-09T01:54:00.749Z,101415.72
2023-04-09T01:58:57.000Z,101430.81
2023-04-09T02:03:58.329Z,101428.97
2023-04-09T02:08:55.338Z,101424.38
2023-04-09T02:13:54.259Z,101432.13
2023-04-09T02:18:54.902Z,101426.56
2023-04-09T02:23:51.427Z,101426.06
2023-04-09T02:28:48.019Z,101433.59
2023-04-09T02:33:44.249Z,101431.69
2023-04-09T02:38:43.574Z,101431.81
2023-04-09T02:43:39.840Z,101437.06
2023-04-09T02:48:36.110Z,101442.97
2023-04-09T02:53:32.348Z,101437.53
2023-04-09T02:58:28.877Z,101433.19
2023-04-09T03:03:25.442Z,101432.47
2023-04-09T03:08:21.695Z,101431.75
2023-04-09T03:13:17.969Z,101424.91
2023-04-09T03:18:14.621Z,101422.75
2023-04-09T03:23:11.039Z,101420.19
2023-04-09T03:28:07.260Z,101423.06
2023-04-09T03:33:03.627Z,101419.53
2023-04-09T03:37:59.911Z,101426.03
2023-04-09T03:42:56.141Z,101426.00
2023-04-09T03:47:52.477Z,101430.69
2023-04-09T03:52:48.820Z,101428.78
2023-04-09T03:57:45.098Z,101430.41
2023-04-09T04:02:41.524Z,101428.66
2023-04-09T04:07:38.201Z,101419.16
2023-04-09T04:12:34.458Z,101429.75
2023-04-09T04:17:30.725Z,101418.25
2023-04-09T04:22:26.963Z,101422.75
2023-04-09T04:27:23.237Z,101416.09
2023-04-09T04:32:19.455Z,101418.78
2023-04-09T04:37:15.891Z,101415.81
2023-04-09T04:42:12.117Z,101416.38
2023-04-09T04:47:08.380Z,101408.59
2023-04-09T04:52:04.756Z,101404.53
2023-04-09T04:57:01.467Z,101404.34
2023-04-09T05:01:57.818Z,101408.38
2023-04-09T05:06:54.087Z,101405.09
2023-04-09T05:11:50.375Z,101400.63
2023-04-09T05:16:47.110Z,101401.31
2023-04-09T05:21:44.107Z,101402.88
2023-04-09T05:26:41.335Z,101411.81
2023-04-09T05:31:37.784Z,101412.56
2023-04-09T05:36:34.030Z,101420.13
2023-04-09T05:41:30.290Z,101420.63
2023-04-09T05:46:27.301Z,101420.47
2023-04-09T05:51:23.661Z,101402.78
2023-04-09T05:56:22.662Z,101382.34
2023-04-09T06:01:19.562Z,101365.88
2023-04-09T06:06:16.435Z,101343.78
2023-04-09T06:11:13.374Z,101344.09
2023-04-09T06:16:10.440Z,101336.88
2023-04-09T06:21:07.529Z,101339.84
2023-04-09T06:26:03.818Z,101343.78
2023-04-09T06:31:00.290Z,101345.03
2023-04-09T06:35:56.583Z,101344.66
2023-04-09T06:40:52.855Z,101347.38
2023-04-09T06:45:49.516Z,101347.75
2023-04-09T06:50:45.828Z,101354.19
2023-04-09T06:55:42.128Z,101355.63
2023-04-09T07:00:38.445Z,101349.66
2023-04-09T07:05:34.879Z,101350.66
2023-04-09T07:10:31.301Z,101350.84
2023-04-09T07:15:27.554Z,101346.56
2023-04-09T07:20:23.877Z,101360.75
2023-04-09T07:25:21.219Z,101359.63
2023-04-09T07:30:17.536Z,101360.81
2023-04-09T07:35:13.812Z,101355.22
2023-04-09T07:40:10.719Z,101357.88
2023-04-09T07:45:07.763Z,101361.44
2023-04-09T07:50:04.172Z,101367.00
2023-04-09T07:55:00.681Z,101379.25
2023-04-09T07:59:56.969Z,101374.50
2023-04-09T08:04:53.293Z,101385.25
2023-04-09T08:09:49.618Z,101376.06
2023-04-09T08:14:45.950Z,101371.25
2023-04-09T08:19:42.295Z,101377.22
2023-04-09T08:24:40.141Z,101375.97
2023-04-09T08:29:36.443Z,101375.56
2023-04-09T08:34:32.678Z,101385.63
2023-04-09T08:39:28.948Z,101381.84
2023-04-09T08:44:28.671Z,101374.16
2023-04-09T08:49:24.924Z,101385.78
2023-04-09T08:54:21.195Z,101374.09
2023-04-09T08:59:21.149Z,101365.91
2023-04-09T09:04:17.522Z,101364.91
2023-04-09T09:09:14.821Z,101362.06
2023-04-09T09:14:15.968Z,101363.50
2023-04-09T09:19:28.549Z,101359.88
2023-04-09T09:24:24.776Z,101359.44
2023-04-09T09:29:21.196Z,101349.38
2023-04-09T09:34:18.185Z,101348.63
2023-04-09T09:39:17.178Z,101342.69
2023-04-09T09:44:30.587Z,101337.69
2023-04-09T09:49:27.104Z,101346.13
2023-04-09T09:54:25.250Z,101341.47
2023-04-09T09:59:23.105Z,101342.72
2023-04-09T10:04:19.982Z,101337.03
2023-04-09T10:09:16.544Z,101334.84
2023-04-09T10:14:13.511Z,101335.28
2023-04-09T10:19:14.047Z,101322.25
2023-04-09T10:24:10.607Z,101329.63
2023-04-09T10:29:08.128Z,101320.03
2023-04-09T10:34:04.696Z,101324.34
2023-04-09T10:39:11.465Z,101316.59
2023-04-09T10:44:19.638Z,101307.44
2023-04-09T10:49:17.877Z,101301.94
2023-04-09T10:54:32.569Z,101312.13
2023-04-09T10:59:28.838Z,101302.88
2023-04-09T11:04:28.677Z,101298.75
2023-04-09T11:09:24.972Z,101293.66
2023-04-09T11:14:21.604Z,101282.81
2023-04-09T11:19:18.719Z,101281.63
2023-04-09T11:24:15.519Z,101271.38
2023-04-09T11:29:12.853Z,101262.44
2023-04-09T11:34:10.116Z,101266.72
2023-04-09T11:39:06.534Z,101263.69
2023-04-09T11:44:06.453Z,101265.16
2023-04-09T11:49:03.158Z,101261.69
2023-04-09T11:54:06.407Z,101263.69
2023-04-09T11:59:03.241Z,101254.34
2023-04-09T12:04:00.772Z,101256.88
2023-04-09T12:08:58.374Z,101256.09
2023-04-09T12:14:04.389Z,101256.97
2023-04-09T12:19:07.390Z,101256.00
2023-04-09T12:24:03.707Z,101250.06
2023-04-09T12:29:00.232Z,101259.28
2023-04-09T12:33:56.792Z,101252.47
2023-04-09T12:38:53.416Z,101251.84
2023-04-09T12:43:50.218Z,101253.66
2023-04-09T12:48:47.094Z,101239.09
2023-04-09T12:53:43.384Z,101252.47
2023-04-09T12:58:39.697Z,101253.66
2023-04-09T13:03:36.207Z,101238.94
2023-04-09T13:08:32.871Z,101234.22
2023-04-09T13:13:29.705Z,101240.78
2023-04-09T13:18:26.126Z,101229.59
2023-04-09T13:23:22.462Z,101226.19
2023-04-09T13:28:18.895Z,101219.38
2023-04-09T13:33:15.428Z,101220.81
2023-04-09T13:38:11.886Z,101213.66
2023-04-09T13:43:08.337Z,101209.81
2023-04-09T13:48:06.179Z,101208.81
2023-04-09T13:53:05.216Z,101206.91
2023-04-09T13:58:01.517Z,101194.31
2023-04-09T14:02:58.392Z,101188.63
2023-04-09T14:07:54.732Z,101187.00
2023-04-09T14:12:51.424Z,101201.69
2023-04-09T14:17:47.735Z,101197.09
2023-04-09T14:22:49.013Z,101179.56
2023-04-09T14:27:45.593Z,101182.78
2023-04-09T14:32:43.158Z,101185.53
2023-04-09T14:37:41.070Z,101172.72
2023-04-09T14:42:37.468Z,101186.03
2023-04-09T14:47:33.833Z,101184.09
2023-04-09T14:52:30.546Z,101177.69
2023-04-09T14:57:26.850Z,101178.53
2023-04-09T15:02:23.235Z,101161.25
2023-04-09T15:07:19.624Z,101167.09
2023-04-09T15:12:16.145Z,101164.75
2023-04-09T15:17:12.454Z,101153.22
2023-04-09T15:22:08.754Z,101163.16
2023-04-09T15:27:05.598Z,101168.41
2023-04-09T15:32:02.362Z,101162.81
2023-04-09T15:36:58.785Z,101161.25
2023-04-09T15:41:58.293Z,101163.91
2023-04-09T15:46:54.579Z,101166.53
2023-04-09T15:51:50.851Z,101166.06
2023-04-09T15:56:47.217Z,101153.44
2023-04-09T16:01:44.241Z,101152.88
2023-04-09T16:06:40.657Z,101152.19
2023-04-09T16:11:37.516Z,101150.97
2023-04-09T16:16:33.896Z,101147.78
2023-04-09T16:21:30.227Z,101148.22
2023-04-09T16:26:26.547Z,101152.94
2023-04-09T16:31:23.072Z,101159.66
2023-04-09T16:36:19.441Z,101151.78
2023-04-09T16:41:15.794Z,101148.81
2023-04-09T16:46:12.203Z,101153.22
2023-04-09T16:51:08.694Z,101149.44
2023-04-09T16:56:05.202Z,101138.50
2023-04-09T17:01:02.050Z,101140.06
2023-04-09T17:05:58.558Z,101143.53
2023-04-09T17:11:01.748Z,101140.47
2023-04-09T17:15:58.700Z,101138.59
2023-04-09T17:20:55.090Z,101134.28
2023-04-09T17:25:51.552Z,101108.19
2023-04-09T17:30:48.022Z,101102.66
2023-04-09T17:35:44.656Z,101098.31
2023-04-09T17:40:41.006Z,101092.81
2023-04-09T17:45:37.337Z,101100.06
2023-04-09T17:50:33.629Z,101110.28
2023-04-09T17:55:30.544Z,101105.66
2023-04-09T18:00:26.967Z,101117.22
2023-04-09T18:05:23.692Z,101119.63
2023-04-09T18:10:20.268Z,101113.34
2023-04-09T18:15:18.986Z,101125.38
2023-04-09T18:20:15.549Z,101121.31
2023-04-09T18:25:12.015Z,101124.59
2023-04-09T18:30:08.518Z,101129.13
2023-04-09T18:35:04.985Z,101133.09
2023-04-09T18:40:02.663Z,101132.19
2023-04-09T18:44:59.252Z,101128.00
2023-04-09T18:49:55.551Z,101134.03
2023-04-09T18:54:51.896Z,101138.50
2023-04-09T18:59:48.231Z,101135.88
2023-04-09T19:04:45.042Z,101142.19
2023-04-09T19:09:42.079Z,101148.69
2023-04-09T19:14:40.163Z,101145.16
2023-04-09T19:19:37.310Z,101144.47
2023-04-09T19:24:33.804Z,101152.50
2023-04-09T19:29:30.457Z,101147.28
2023-04-09T19:34:26.770Z,101154.31
2023-04-09T19:39:23.114Z,101156.09
2023-04-09T19:44:19.403Z,101163.94
2023-04-09T19:49:15.693Z,101167.47
2023-04-09T19:54:11.963Z,101154.94
2023-04-09T19:59:08.349Z,101160.53
2023-04-09T20:04:05.264Z,101147.16
2023-04-09T20:09:02.114Z,101154.66
2023-04-09T20:13:58.473Z,101156.97
2023-04-09T20:18:55.153Z,101147.66
2023-04-09T20:23:51.618Z,101141.69
2023-04-09T20:28:48.257Z,101149.25
2023-04-09T20:33:44.630Z,101140.31
2023-04-09T20:38:40.939Z,101133.41
2023-04-09T20:43:38.368Z,101132.41
2023-04-09T20:48:34.633Z,101120.66
2023-04-09T20:53:30.920Z,101122.13
2023-04-09T20:58:27.443Z,101121.47
2023-04-09T21:03:23.951Z,101116.81
2023-04-09T21:08:20.638Z,101114.09
2023-04-09T21:13:16.907Z,101115.94
2023-04-09T21:18:13.202Z,101110.16
2023-04-09T21:23:09.522Z,101111.34
2023-04-09T21:28:06.365Z,101108.50
2023-04-09T21:33:05.651Z,101111.72
2023-04-09T21:38:03.022Z,101110.91
2023-04-09T21:42:59.292Z,101115.31
2023-04-09T21:47:55.758Z,101106.22
2023-04-09T21:52:52.052Z,101092.81
2023-04-09T21:57:48.331Z,101091.72
2023-04-09T22:02:44.765Z,101093.72
2023-04-09T22:07:42.391Z,101086.50
2023-04-09T22:12:38.705Z,101071.34
2023-04-09T22:17:35.105Z,101075.38
2023-04-09T22:22:32.279Z,101081.47
2023-04-09T22:27:28.550Z,101078.97
2023-04-09T22:32:24.947Z,101086.09
2023-04-09T22:37:21.565Z,101087.53
2023-04-09T22:42:17.928Z,101095.97
2023-04-09T22:47:14.190Z,101085.50
2023-04-09T22:52:10.458Z,101092.53
2023-04-09T22:57:06.738Z,101088.28
2023-04-09T23:02:03.114Z,101088.00
2023-04-09T23:07:00.129Z,101088.44
2023-04-09T23:11:57.056Z,101084.34
2023-04-09T23:16:53.328Z,101084.34
2023-04-09T23:21:49.591Z,101086.94
2023-04-09T23:26:45.890Z,101088.94
2023-04-09T23:31:42.200Z,101081.03
2023-04-09T23:36:38.632Z,101097.44
2023-04-09T23:41:35.024Z,101086.69
2023-04-09T23:46:31.450Z,101094.25
2023-04-09T23:51:27.881Z,101094.31
2023-04-09T23:56:25.064Z,101092.50
